createdAt,value
2022-10-05T00:00:25.883Z,26.91
2022-10-05T00:01:25.983Z,26.85
2022-10-05T00:02:25.882Z,26.88
2022-10-05T00:03:25.882Z,26.89
2022-10-05T00:04:25.882Z,26.88
2022-10-05T00:05:25.966Z,26.91
2022-10-05T00:06:25.905Z,26.89
2022-10-05T00:07:25.884Z,26.89
2022-10-05T00:08:25.881Z,26.88
2022-10-05T00:09:25.884Z,26.91
2022-10-05T00:10:25.883Z,26.85
2022-10-05T00:11:25.883Z,26.88
2022-10-05T00:12:25.882Z,26.81
2022-10-05T00:13:25.891Z,26.81
2022-10-05T00:14:25.883Z,26.80
2022-10-05T00:15:25.884Z,26.84
2022-10-05T00:16:25.971Z,26.76
2022-10-05T00:17:25.889Z,26.85
2022-10-05T00:18:25.883Z,26.82
2022-10-05T00:19:25.883Z,26.89
2022-10-05T00:20:25.884Z,26.88
2022-10-05T00:21:25.883Z,26.84
2022-10-05T00:22:25.904Z,26.87
2022-10-05T00:23:25.884Z,26.91
2022-10-05T00:24:25.882Z,26.85
2022-10-05T00:25:25.885Z,26.84
2022-10-05T00:26:25.883Z,26.87
2022-10-05T00:27:25.886Z,26.85
2022-10-05T00:28:25.884Z,26.84
2022-10-05T00:29:25.886Z,26.89
2022-10-05T00:30:25.883Z,26.80
2022-10-05T00:31:25.973Z,26.84
2022-10-05T00:32:25.883Z,26.89
2022-10-05T00:33:25.885Z,26.91
2022-10-05T00:34:25.884Z,26.85
2022-10-05T00:35:25.885Z,26.88
2022-10-05T00:36:25.888Z,26.77
2022-10-05T00:37:25.885Z,26.75
2022-10-05T00:38:25.911Z,26.84
2022-10-05T00:39:25.889Z,26.81
2022-10-05T00:40:25.885Z,26.85
2022-10-05T00:41:25.887Z,26.80
2022-10-05T00:42:25.883Z,26.81
2022-10-05T00:43:25.885Z,26.87
2022-10-05T00:44:25.886Z,26.87
2022-10-05T00:45:25.950Z,26.88
2022-10-05T00:46:25.885Z,26.76
2022-10-05T00:47:25.889Z,26.85
2022-10-05T00:48:25.888Z,26.85
2022-10-05T00:49:25.885Z,26.84
2022-10-05T00:50:25.894Z,26.88
2022-10-05T00:51:25.886Z,26.81
2022-10-05T00:52:25.887Z,26.87
2022-10-05T00:53:25.886Z,26.88
2022-10-05T00:54:25.915Z,26.84
2022-10-05T00:55:25.885Z,26.77
2022-10-05T00:56:25.886Z,26.82
2022-10-05T00:57:25.888Z,26.84
2022-10-05T00:58:25.893Z,26.84
2022-10-05T00:59:25.886Z,26.76
2022-10-05T01:00:25.889Z,26.84
2022-10-05T01:01:25.987Z,26.87
2022-10-05T01:02:25.963Z,26.82
2022-10-05T01:03:25.886Z,26.91
2022-10-05T01:04:25.886Z,26.92
2022-10-05T01:05:25.888Z,26.81
2022-10-05T01:06:25.885Z,26.87
2022-10-05T01:07:25.888Z,26.80
2022-10-05T01:08:25.887Z,26.88
2022-10-05T01:09:25.887Z,26.88
2022-10-05T01:10:25.908Z,26.88
2022-10-05T01:11:25.893Z,26.85
2022-10-05T01:12:25.887Z,26.88
2022-10-05T01:13:25.889Z,26.81
2022-10-05T01:14:25.886Z,26.82
2022-10-05T01:15:25.888Z,26.82
2022-10-05T01:16:25.967Z,26.84
2022-10-05T01:17:25.889Z,26.88
2022-10-05T01:18:25.888Z,26.85
2022-10-05T01:19:25.887Z,26.82
2022-10-05T01:20:25.886Z,26.85
2022-10-05T01:21:25.890Z,26.77
2022-10-05T01:22:25.886Z,26.75
2022-10-05T01:23:25.889Z,26.87
2022-10-05T01:24:25.891Z,26.85
2022-10-05T01:25:25.888Z,26.81
2022-10-05T01:26:25.914Z,26.81
2022-10-05T01:27:25.888Z,26.85
2022-10-05T01:28:25.974Z,26.85
2022-10-05T01:29:25.890Z,26.89
2022-10-05T01:30:25.887Z,26.81
2022-10-05T01:31:25.941Z,26.85
2022-10-05T01:32:25.891Z,26.84
2022-10-05T01:33:25.889Z,26.80
2022-10-05T01:34:25.886Z,26.81
2022-10-05T01:35:25.889Z,26.88
2022-10-05T01:36:25.887Z,26.84
2022-10-05T01:37:25.889Z,26.81
2022-10-05T01:38:25.888Z,26.81
2022-10-05T01:39:25.890Z,26.75
2022-10-05T01:40:25.887Z,26.84
2022-10-05T01:41:25.889Z,26.87
2022-10-05T01:42:25.952Z,26.73
2022-10-05T01:43:25.889Z,26.88
2022-10-05T01:44:25.891Z,26.84
2022-10-05T01:45:25.890Z,26.85
2022-10-05T01:46:25.890Z,26.80
2022-10-05T01:47:25.891Z,26.81
2022-10-05T01:48:25.888Z,26.82
2022-10-05T01:49:25.891Z,26.81
2022-10-05T01:50:25.889Z,26.82
2022-10-05T01:51:25.889Z,26.76
2022-10-05T01:52:25.890Z,26.80
2022-10-05T01:53:25.889Z,26.80
2022-10-05T01:54:25.889Z,26.80
2022-10-05T01:55:25.890Z,26.88
2022-10-05T01:56:25.889Z,26.76
2022-10-05T01:57:25.893Z,26.76
2022-10-05T01:58:25.915Z,26.85
2022-10-05T01:59:25.890Z,26.80
2022-10-05T02:00:25.890Z,26.80
2022-10-05T02:01:25.966Z,26.80
2022-10-05T02:02:25.935Z,26.87
2022-10-05T02:03:25.891Z,26.76
2022-10-05T02:04:59.797Z,26.80
2022-10-05T02:05:25.891Z,26.80
2022-10-05T02:06:25.890Z,26.84
2022-10-05T02:07:25.890Z,26.82
2022-10-05T02:08:25.891Z,26.80
2022-10-05T02:09:25.891Z,26.84
2022-10-05T02:10:25.890Z,26.80
2022-10-05T02:11:25.895Z,26.77
2022-10-05T02:12:25.890Z,26.84
2022-10-05T02:13:25.892Z,26.81
2022-10-05T02:14:25.913Z,26.76
2022-10-05T02:15:25.892Z,26.76
2022-10-05T02:16:25.944Z,26.77
2022-10-05T02:17:25.891Z,26.76
2022-10-05T02:18:25.890Z,26.81
2022-10-05T02:19:25.891Z,26.77
2022-10-05T02:20:25.891Z,26.87
2022-10-05T02:21:25.892Z,26.84
2022-10-05T02:22:25.890Z,26.81
2022-10-05T02:23:25.894Z,26.73
2022-10-05T02:24:25.900Z,26.76
2022-10-05T02:25:25.894Z,26.80
2022-10-05T02:26:25.903Z,26.80
2022-10-05T02:27:25.892Z,26.88
2022-10-05T02:28:25.941Z,26.76
2022-10-05T02:29:25.896Z,26.88
2022-10-05T02:30:25.913Z,26.84
2022-10-05T02:31:25.995Z,26.75
2022-10-05T02:32:25.902Z,26.80
2022-10-05T02:33:25.896Z,26.76
2022-10-05T02:34:25.892Z,26.81
2022-10-05T02:35:25.896Z,26.84
2022-10-05T02:36:25.897Z,26.81
2022-10-05T02:37:25.920Z,26.81
2022-10-05T02:38:25.891Z,26.88
2022-10-05T02:39:25.894Z,26.77
2022-10-05T02:40:25.892Z,26.80
2022-10-05T02:41:25.894Z,26.77
2022-10-05T02:42:26.020Z,26.75
2022-10-05T02:43:25.893Z,26.82
2022-10-05T02:44:25.892Z,26.80
2022-10-05T02:45:25.893Z,26.72
2022-10-05T02:46:26.030Z,26.76
2022-10-05T02:47:25.893Z,26.77
2022-10-05T02:48:25.892Z,26.76
2022-10-05T02:49:25.892Z,26.82
2022-10-05T02:50:25.892Z,26.81
2022-10-05T02:51:25.892Z,26.73
2022-10-05T02:52:25.893Z,26.76
2022-10-05T02:53:25.894Z,26.81
2022-10-05T02:54:25.891Z,26.77
2022-10-05T02:55:25.893Z,26.88
2022-10-05T02:56:25.891Z,26.89
2022-10-05T02:57:25.894Z,26.75
2022-10-05T02:58:25.891Z,26.80
2022-10-05T02:59:25.893Z,26.81
2022-10-05T03:00:25.896Z,26.76
2022-10-05T03:01:25.955Z,26.80
2022-10-05T03:02:26.015Z,26.77
2022-10-05T03:03:25.892Z,26.73
2022-10-05T03:04:25.895Z,26.81
2022-10-05T03:05:25.892Z,26.73
2022-10-05T03:06:25.898Z,26.81
2022-10-05T03:07:25.892Z,26.73
2022-10-05T03:08:25.894Z,26.81
2022-10-05T03:09:25.894Z,26.75
2022-10-05T03:10:25.893Z,26.81
2022-10-05T03:11:25.893Z,26.76
2022-10-05T03:12:25.895Z,26.73
2022-10-05T03:13:25.894Z,26.76
2022-10-05T03:14:25.899Z,26.80
2022-10-05T03:15:25.892Z,26.73
2022-10-05T03:16:26.017Z,26.77
2022-10-05T03:17:25.893Z,26.76
2022-10-05T03:18:30.481Z,26.77
2022-10-05T03:19:25.894Z,26.75
2022-10-05T03:20:25.894Z,26.85
2022-10-05T03:21:25.895Z,26.80
2022-10-05T03:22:25.895Z,26.75
2022-10-05T03:23:25.894Z,26.75
2022-10-05T03:24:25.895Z,26.77
2022-10-05T03:25:25.897Z,26.76
2022-10-05T03:26:25.893Z,26.82
2022-10-05T03:27:25.893Z,26.77
2022-10-05T03:28:26.019Z,26.72
2022-10-05T03:29:25.893Z,26.69
2022-10-05T03:30:25.895Z,26.77
2022-10-05T03:31:25.951Z,26.81
2022-10-05T03:32:25.895Z,26.73
2022-10-05T03:33:25.897Z,26.73
2022-10-05T03:34:25.922Z,26.72
2022-10-05T03:35:25.894Z,26.77
2022-10-05T03:36:25.895Z,26.81
2022-10-05T03:37:25.895Z,26.81
2022-10-05T03:38:25.895Z,26.76
2022-10-05T03:39:25.893Z,26.81
2022-10-05T03:40:25.896Z,26.80
2022-10-05T03:41:25.895Z,26.75
2022-10-05T03:42:25.895Z,26.73
2022-10-05T03:43:25.894Z,26.81
2022-10-05T03:44:25.894Z,26.73
2022-10-05T03:45:25.897Z,26.77
2022-10-05T03:46:26.007Z,26.73
2022-10-05T03:47:25.895Z,26.82
2022-10-05T03:48:25.898Z,26.73
2022-10-05T03:49:25.894Z,26.67
2022-10-05T03:50:25.916Z,26.81
2022-10-05T03:51:25.895Z,26.85
2022-10-05T03:52:25.896Z,26.82
2022-10-05T03:53:25.896Z,26.81
2022-10-05T03:54:25.894Z,26.82
2022-10-05T03:55:25.894Z,26.72
2022-10-05T03:56:25.896Z,26.75
2022-10-05T03:57:25.896Z,26.67
2022-10-05T03:58:25.896Z,26.73
2022-10-05T03:59:30.154Z,26.77
2022-10-05T04:00:25.908Z,26.77
2022-10-05T04:01:25.953Z,26.82
2022-10-05T04:02:25.964Z,26.73
2022-10-05T04:03:25.898Z,26.80
2022-10-05T04:04:25.896Z,26.82
2022-10-05T04:05:25.894Z,26.73
2022-10-05T04:06:25.936Z,26.82
2022-10-05T04:07:25.895Z,26.67
2022-10-05T04:08:25.898Z,26.76
2022-10-05T04:09:25.897Z,26.76
2022-10-05T04:10:25.897Z,26.76
2022-10-05T04:11:25.895Z,26.69
2022-10-05T04:12:25.898Z,26.76
2022-10-05T04:13:25.895Z,26.80
2022-10-05T04:14:25.897Z,26.73
2022-10-05T04:15:25.895Z,26.76
2022-10-05T04:16:25.940Z,26.73
2022-10-05T04:17:25.895Z,26.76
2022-10-05T04:18:25.895Z,26.77
2022-10-05T04:19:25.900Z,26.77
2022-10-05T04:20:25.899Z,26.67
2022-10-05T04:21:25.895Z,26.75
2022-10-05T04:22:25.922Z,26.75
2022-10-05T04:23:25.896Z,26.72
2022-10-05T04:24:25.897Z,26.67
2022-10-05T04:25:25.897Z,26.82
2022-10-05T04:26:25.895Z,26.73
2022-10-05T04:27:25.896Z,26.77
2022-10-05T04:28:31.034Z,26.80
2022-10-05T04:29:25.896Z,26.80
2022-10-05T04:30:25.897Z,26.76
2022-10-05T04:31:25.964Z,26.72
2022-10-05T04:32:25.897Z,26.76
2022-10-05T04:33:25.896Z,26.72
2022-10-05T04:34:25.897Z,26.73
2022-10-05T04:35:25.897Z,26.80
2022-10-05T04:36:25.897Z,26.70
2022-10-05T04:37:25.896Z,26.67
2022-10-05T04:38:25.918Z,26.72
2022-10-05T04:39:25.896Z,26.75
2022-10-05T04:40:25.898Z,26.72
2022-10-05T04:41:25.897Z,26.75
2022-10-05T04:42:25.898Z,26.80
2022-10-05T04:43:25.896Z,26.70
2022-10-05T04:44:25.896Z,26.77
2022-10-05T04:45:25.913Z,26.70
2022-10-05T04:46:25.962Z,26.73
2022-10-05T04:47:25.897Z,26.77
2022-10-05T04:48:25.898Z,26.84
2022-10-05T04:49:25.897Z,26.76
2022-10-05T04:50:25.897Z,26.81
2022-10-05T04:51:25.896Z,26.72
2022-10-05T04:52:25.898Z,26.76
2022-10-05T04:53:25.898Z,26.73
2022-10-05T04:54:25.918Z,26.69
2022-10-05T04:55:25.898Z,26.77
2022-10-05T04:56:25.901Z,26.84
2022-10-05T04:57:25.897Z,26.80
2022-10-05T04:58:25.896Z,26.77
2022-10-05T04:59:25.896Z,26.76
2022-10-05T05:00:25.898Z,26.77
2022-10-05T05:01:25.914Z,26.75
2022-10-05T05:02:25.897Z,26.77
2022-10-05T05:03:25.917Z,26.69
2022-10-05T05:04:25.898Z,26.75
2022-10-05T05:05:25.896Z,26.85
2022-10-05T05:06:25.898Z,26.77
2022-10-05T05:07:25.897Z,26.72
2022-10-05T05:08:25.897Z,26.69
2022-10-05T05:09:25.897Z,26.75
2022-10-05T05:10:25.917Z,26.73
2022-10-05T05:11:25.897Z,26.84
2022-10-05T05:12:25.898Z,26.75
2022-10-05T05:13:25.897Z,26.75
2022-10-05T05:14:25.898Z,26.72
2022-10-05T05:15:25.896Z,26.70
2022-10-05T05:16:25.948Z,26.84
2022-10-05T05:17:25.897Z,26.75
2022-10-05T05:18:25.900Z,26.73
2022-10-05T05:19:25.895Z,26.80
2022-10-05T05:20:25.898Z,26.69
2022-10-05T05:21:25.898Z,26.69
2022-10-05T05:22:25.898Z,26.77
2022-10-05T05:23:25.897Z,26.73
2022-10-05T05:24:25.901Z,26.76
2022-10-05T05:25:25.897Z,26.76
2022-10-05T05:26:25.918Z,26.77
2022-10-05T05:27:25.898Z,26.72
2022-10-05T05:28:26.008Z,26.75
2022-10-05T05:29:25.897Z,26.81
2022-10-05T05:30:25.898Z,26.69
2022-10-05T05:31:25.943Z,26.77
2022-10-05T05:32:25.898Z,26.76
2022-10-05T05:33:25.898Z,26.73
2022-10-05T05:34:25.903Z,26.70
2022-10-05T05:35:25.897Z,26.80
2022-10-05T05:36:25.897Z,26.80
2022-10-05T05:37:25.898Z,26.75
2022-10-05T05:38:25.899Z,26.80
2022-10-05T05:39:25.898Z,26.81
2022-10-05T05:40:25.897Z,26.75
2022-10-05T05:41:25.898Z,26.76
2022-10-05T05:42:25.985Z,26.70
2022-10-05T05:43:25.898Z,26.75
2022-10-05T05:44:25.899Z,26.73
2022-10-05T05:45:25.898Z,26.72
2022-10-05T05:46:44.697Z,26.75
2022-10-05T05:47:25.921Z,26.67
2022-10-05T05:48:25.898Z,26.70
2022-10-05T05:49:25.899Z,26.73
2022-10-05T05:50:25.897Z,26.69
2022-10-05T05:51:25.897Z,26.69
2022-10-05T05:52:25.897Z,26.77
2022-10-05T05:53:25.898Z,26.70
2022-10-05T05:54:25.898Z,26.76
2022-10-05T05:55:29.961Z,26.73
2022-10-05T05:56:25.899Z,26.70
2022-10-05T05:57:25.898Z,26.75
2022-10-05T05:58:25.923Z,26.70
2022-10-05T05:59:25.897Z,26.72
2022-10-05T06:00:25.898Z,26.70
2022-10-05T06:01:33.401Z,26.75
2022-10-05T06:02:26.053Z,26.72
2022-10-05T06:03:26.122Z,26.73
2022-10-05T06:04:25.897Z,26.73
2022-10-05T06:05:25.898Z,26.73
2022-10-05T06:06:25.897Z,26.69
2022-10-05T06:07:30.375Z,26.73
2022-10-05T06:08:25.904Z,26.75
2022-10-05T06:09:25.901Z,26.73
2022-10-05T06:10:25.899Z,26.76
2022-10-05T06:11:25.897Z,26.69
2022-10-05T06:12:25.897Z,26.73
2022-10-05T06:13:25.896Z,26.73
2022-10-05T06:14:25.927Z,26.73
2022-10-05T06:15:25.897Z,26.73
2022-10-05T06:16:25.975Z,26.69
2022-10-05T06:17:25.903Z,26.80
2022-10-05T06:18:25.900Z,26.70
2022-10-05T06:19:25.896Z,26.73
2022-10-05T06:20:25.900Z,26.73
2022-10-05T06:21:25.898Z,26.75
2022-10-05T06:22:25.897Z,26.75
2022-10-05T06:23:25.896Z,26.73
2022-10-05T06:24:25.898Z,26.69
2022-10-05T06:25:25.899Z,26.72
2022-10-05T06:26:25.898Z,26.73
2022-10-05T06:27:25.897Z,26.72
2022-10-05T06:28:25.987Z,26.73
2022-10-05T06:29:25.899Z,26.73
2022-10-05T06:30:25.937Z,26.72
2022-10-05T06:31:26.005Z,26.69
2022-10-05T06:32:25.898Z,26.72
2022-10-05T06:33:25.897Z,26.70
2022-10-05T06:34:25.896Z,26.69
2022-10-05T06:35:25.896Z,26.70
2022-10-05T06:36:25.898Z,26.75
2022-10-05T06:37:25.898Z,26.73
2022-10-05T06:38:25.899Z,26.69
2022-10-05T06:39:25.897Z,26.73
2022-10-05T06:40:25.985Z,26.70
2022-10-05T06:41:25.896Z,26.73
2022-10-05T06:42:25.898Z,26.72
2022-10-05T06:43:25.897Z,26.69
2022-10-05T06:44:25.901Z,26.69
2022-10-05T06:45:26.070Z,26.76
2022-10-05T06:46:25.920Z,26.70
2022-10-05T06:47:25.897Z,26.77
2022-10-05T06:48:25.899Z,26.73
2022-10-05T06:49:25.898Z,26.75
2022-10-05T06:50:25.912Z,26.76
2022-10-05T06:51:25.897Z,26.72
2022-10-05T06:52:25.899Z,26.75
2022-10-05T06:53:25.897Z,26.84
2022-10-05T06:54:25.897Z,26.67
2022-10-05T06:55:25.898Z,26.76
2022-10-05T06:56:25.898Z,26.82
2022-10-05T06:57:25.897Z,26.75
2022-10-05T06:58:25.899Z,26.72
2022-10-05T06:59:25.897Z,26.73
2022-10-05T07:00:26.015Z,26.72
2022-10-05T07:01:25.981Z,26.80
2022-10-05T07:02:25.969Z,26.70
2022-10-05T07:03:25.898Z,26.73
2022-10-05T07:04:25.900Z,26.73
2022-10-05T07:05:25.898Z,26.80
2022-10-05T07:06:25.898Z,26.72
2022-10-05T07:07:25.897Z,26.77
2022-10-05T07:08:25.897Z,26.73
2022-10-05T07:09:25.903Z,26.80
2022-10-05T07:10:25.899Z,26.75
2022-10-05T07:11:25.898Z,26.75
2022-10-05T07:12:25.899Z,26.73
2022-10-05T07:13:25.898Z,26.75
2022-10-05T07:14:25.899Z,26.69
2022-10-05T07:15:25.898Z,26.67
2022-10-05T07:16:25.991Z,26.72
2022-10-05T07:17:25.898Z,26.76
2022-10-05T07:18:25.918Z,26.66
2022-10-05T07:19:25.898Z,26.82
2022-10-05T07:20:25.897Z,26.81
2022-10-05T07:21:25.899Z,26.72
2022-10-05T07:22:27.395Z,26.80
2022-10-05T07:23:25.900Z,26.73
2022-10-05T07:24:25.902Z,26.66
2022-10-05T07:25:25.899Z,26.81
2022-10-05T07:26:25.899Z,26.73
2022-10-05T07:27:25.897Z,26.77
2022-10-05T07:28:26.023Z,26.73
2022-10-05T07:29:25.900Z,26.75
2022-10-05T07:30:25.899Z,26.73
2022-10-05T07:31:25.949Z,26.73
2022-10-05T07:32:25.899Z,26.72
2022-10-05T07:33:25.899Z,26.81
2022-10-05T07:34:25.928Z,26.69
2022-10-05T07:35:25.900Z,26.75
2022-10-05T07:36:25.899Z,26.81
2022-10-05T07:37:25.901Z,26.82
2022-10-05T07:38:25.898Z,26.82
2022-10-05T07:39:42.001Z,26.73
2022-10-05T07:40:25.897Z,26.77
2022-10-05T07:41:25.899Z,26.75
2022-10-05T07:42:25.897Z,26.77
2022-10-05T07:43:25.924Z,26.76
2022-10-05T07:44:25.899Z,26.84
2022-10-05T07:45:25.931Z,26.77
2022-10-05T07:46:25.914Z,26.80
2022-10-05T07:47:25.898Z,26.73
2022-10-05T07:48:25.899Z,26.75
2022-10-05T07:49:25.899Z,26.73
2022-10-05T07:50:25.918Z,26.76
2022-10-05T07:51:25.898Z,26.81
2022-10-05T07:52:25.898Z,26.77
2022-10-05T07:53:25.899Z,26.84
2022-10-05T07:54:25.899Z,26.67
2022-10-05T07:55:25.901Z,26.76
2022-10-05T07:56:25.899Z,26.76
2022-10-05T07:57:25.899Z,26.82
2022-10-05T07:58:25.902Z,26.76
2022-10-05T07:59:25.898Z,26.77
2022-10-05T08:00:25.900Z,26.73
2022-10-05T08:01:25.944Z,26.73
2022-10-05T08:02:26.156Z,26.77
2022-10-05T08:03:25.898Z,26.76
2022-10-05T08:04:25.902Z,26.70
2022-10-05T08:05:25.902Z,26.76
2022-10-05T08:06:25.919Z,26.66
2022-10-05T08:07:25.906Z,26.72
2022-10-05T08:08:25.898Z,26.81
2022-10-05T08:09:25.900Z,26.81
2022-10-05T08:10:25.898Z,26.77
2022-10-05T08:11:25.898Z,26.81
2022-10-05T08:12:25.898Z,26.73
2022-10-05T08:13:25.899Z,26.67
2022-10-05T08:14:25.898Z,26.81
2022-10-05T08:15:25.904Z,26.75
2022-10-05T08:16:25.974Z,26.80
2022-10-05T08:17:26.523Z,26.80
2022-10-05T08:18:25.897Z,26.80
2022-10-05T08:19:25.900Z,26.81
2022-10-05T08:20:25.900Z,26.75
2022-10-05T08:21:25.903Z,26.70
2022-10-05T08:22:25.949Z,26.80
2022-10-05T08:23:25.907Z,26.85
2022-10-05T08:24:25.899Z,26.82
2022-10-05T08:25:25.902Z,26.87
2022-10-05T08:26:25.899Z,26.81
2022-10-05T08:27:25.900Z,26.72
2022-10-05T08:28:25.954Z,26.80
2022-10-05T08:29:25.900Z,26.77
2022-10-05T08:30:25.899Z,26.89
2022-10-05T08:31:26.005Z,26.80
2022-10-05T08:32:25.899Z,26.77
2022-10-05T08:33:25.900Z,26.85
2022-10-05T08:34:25.900Z,26.77
2022-10-05T08:35:25.900Z,26.84
2022-10-05T08:36:25.899Z,26.80
2022-10-05T08:37:25.901Z,26.84
2022-10-05T08:38:25.918Z,26.84
2022-10-05T08:39:25.899Z,26.81
2022-10-05T08:40:25.900Z,26.85
2022-10-05T08:41:25.901Z,26.88
2022-10-05T08:42:25.900Z,26.88
2022-10-05T08:43:25.900Z,26.77
2022-10-05T08:44:25.899Z,26.85
2022-10-05T08:45:25.900Z,26.81
2022-10-05T08:46:25.979Z,26.81
2022-10-05T08:47:25.899Z,26.81
2022-10-05T08:48:25.900Z,26.75
2022-10-05T08:49:25.902Z,26.81
2022-10-05T08:50:25.900Z,26.84
2022-10-05T08:51:25.905Z,26.77
2022-10-05T08:52:25.900Z,26.84
2022-10-05T08:53:25.908Z,26.73
2022-10-05T08:54:25.936Z,26.76
2022-10-05T08:55:25.900Z,26.80
2022-10-05T08:56:28.752Z,26.81
2022-10-05T08:57:25.900Z,26.85
2022-10-05T08:58:25.901Z,26.81
2022-10-05T08:59:25.900Z,26.73
2022-10-05T09:00:25.902Z,26.76
2022-10-05T09:01:25.988Z,26.82
2022-10-05T09:02:25.945Z,26.75
2022-10-05T09:03:25.901Z,26.76
2022-10-05T09:04:25.902Z,26.85
2022-10-05T09:05:25.902Z,26.81
2022-10-05T09:06:25.900Z,26.76
2022-10-05T09:07:25.901Z,26.84
2022-10-05T09:08:25.899Z,26.81
2022-10-05T09:09:25.902Z,26.82
2022-10-05T09:10:25.921Z,26.76
2022-10-05T09:11:25.902Z,26.82
2022-10-05T09:12:25.900Z,26.81
2022-10-05T09:13:25.902Z,26.82
2022-10-05T09:14:25.899Z,26.82
2022-10-05T09:15:26.789Z,26.80
2022-10-05T09:16:25.952Z,26.80
2022-10-05T09:17:25.902Z,26.82
2022-10-05T09:18:25.900Z,26.82
2022-10-05T09:19:25.902Z,26.73
2022-10-05T09:20:25.900Z,26.81
2022-10-05T09:21:25.901Z,26.81
2022-10-05T09:22:25.900Z,26.87
2022-10-05T09:23:25.900Z,26.81
2022-10-05T09:24:25.900Z,26.72
2022-10-05T09:25:25.902Z,26.77
2022-10-05T09:26:25.925Z,26.76
2022-10-05T09:27:25.902Z,26.81
2022-10-05T09:28:25.974Z,26.76
2022-10-05T09:29:25.901Z,26.80
2022-10-05T09:30:25.901Z,26.82
2022-10-05T09:31:25.931Z,26.81
2022-10-05T09:32:25.901Z,26.85
2022-10-05T09:33:25.906Z,26.77
2022-10-05T09:34:25.903Z,26.76
2022-10-05T09:35:25.901Z,26.82
2022-10-05T09:36:25.901Z,26.76
2022-10-05T09:37:25.903Z,26.80
2022-10-05T09:38:25.901Z,26.82
2022-10-05T09:39:25.903Z,26.76
2022-10-05T09:40:25.901Z,26.73
2022-10-05T09:41:25.901Z,26.72
2022-10-05T09:42:26.006Z,26.75
2022-10-05T09:43:25.903Z,26.73
2022-10-05T09:44:25.901Z,26.81
2022-10-05T09:45:25.901Z,26.76
2022-10-05T09:46:26.007Z,26.76
2022-10-05T09:47:25.901Z,26.77
2022-10-05T09:48:25.910Z,26.76
2022-10-05T09:49:25.903Z,26.77
2022-10-05T09:50:25.900Z,26.75
2022-10-05T09:51:25.901Z,26.77
2022-10-05T09:52:25.901Z,26.76
2022-10-05T09:53:25.901Z,26.81
2022-10-05T09:54:25.901Z,26.88
2022-10-05T09:55:25.905Z,26.76
2022-10-05T09:56:25.902Z,26.73
2022-10-05T09:57:25.903Z,26.82
2022-10-05T09:58:25.923Z,26.89
2022-10-05T09:59:25.903Z,26.73
2022-10-05T10:00:25.901Z,26.76
2022-10-05T10:01:34.434Z,26.82
2022-10-05T10:02:26.114Z,26.76
2022-10-05T10:03:25.952Z,26.81
2022-10-05T10:04:26.008Z,26.80
2022-10-05T10:05:25.905Z,26.76
2022-10-05T10:06:25.900Z,26.80
2022-10-05T10:07:25.902Z,26.87
2022-10-05T10:08:25.900Z,26.77
2022-10-05T10:09:25.904Z,26.75
2022-10-05T10:10:25.902Z,26.85
2022-10-05T10:11:25.901Z,26.76
2022-10-05T10:12:25.901Z,26.76
2022-10-05T10:13:25.902Z,26.84
2022-10-05T10:14:25.925Z,26.82
2022-10-05T10:15:25.903Z,26.76
2022-10-05T10:16:25.964Z,26.76
2022-10-05T10:17:25.903Z,26.72
2022-10-05T10:18:25.902Z,26.82
2022-10-05T10:19:25.902Z,26.80
2022-10-05T10:20:25.906Z,26.80
2022-10-05T10:21:25.904Z,26.88
2022-10-05T10:22:25.901Z,26.89
2022-10-05T10:23:25.902Z,26.81
2022-10-05T10:24:25.901Z,26.87
2022-10-05T10:25:25.904Z,26.89
2022-10-05T10:26:25.909Z,26.77
2022-10-05T10:27:25.904Z,26.81
2022-10-05T10:28:25.978Z,26.87
2022-10-05T10:30:27.638Z,26.92
2022-10-05T10:31:25.978Z,26.95
2022-10-05T10:32:25.902Z,26.92
2022-10-05T10:33:25.904Z,26.92
2022-10-05T10:34:25.902Z,26.95
2022-10-05T10:35:26.008Z,26.92
2022-10-05T10:36:25.904Z,26.95
2022-10-05T10:37:25.905Z,26.94
2022-10-05T10:38:25.960Z,26.94
2022-10-05T10:39:25.906Z,26.95
2022-10-05T10:40:25.905Z,26.89
2022-10-05T10:41:25.905Z,26.89
2022-10-05T10:42:26.274Z,26.94
2022-10-05T10:43:25.907Z,26.97
2022-10-05T10:44:25.903Z,26.94
2022-10-05T10:45:25.904Z,26.95
2022-10-05T10:46:26.029Z,26.92
2022-10-05T10:47:25.905Z,26.94
2022-10-05T10:48:25.904Z,26.91
2022-10-05T10:49:25.905Z,26.95
2022-10-05T10:50:25.903Z,26.94
2022-10-05T10:51:25.905Z,26.92
2022-10-05T10:52:25.908Z,26.88
2022-10-05T10:53:25.906Z,26.95
2022-10-05T10:54:25.903Z,26.95
2022-10-05T10:55:25.905Z,26.89
2022-10-05T10:56:25.905Z,26.92
2022-10-05T10:57:25.906Z,26.89
2022-10-05T10:58:25.940Z,27.02
2022-10-05T10:59:27.987Z,26.94
2022-10-05T11:00:25.920Z,26.92
2022-10-05T11:01:25.941Z,26.94
2022-10-05T11:02:25.987Z,26.92
2022-10-05T11:03:25.907Z,26.97
2022-10-05T11:04:25.905Z,26.97
2022-10-05T11:05:25.906Z,26.97
2022-10-05T11:06:25.905Z,26.95
2022-10-05T11:07:25.905Z,26.92
2022-10-05T11:08:25.905Z,26.94
2022-10-05T11:09:25.907Z,26.88
2022-10-05T11:10:25.907Z,26.95
2022-10-05T11:11:25.907Z,26.95
2022-10-05T11:12:25.906Z,26.95
2022-10-05T11:13:25.908Z,26.94
2022-10-05T11:14:25.907Z,26.94
2022-10-05T11:15:25.909Z,26.94
2022-10-05T11:16:25.908Z,26.89
2022-10-05T11:17:25.908Z,26.88
2022-10-05T11:18:25.928Z,26.97
2022-10-05T11:19:35.145Z,26.94
2022-10-05T11:20:25.907Z,26.97
2022-10-05T11:21:25.908Z,26.95
2022-10-05T11:22:25.906Z,26.97
2022-10-05T11:23:25.908Z,26.89
2022-10-05T11:24:25.908Z,26.94
2022-10-05T11:25:25.913Z,26.95
2022-10-05T11:26:25.907Z,27.00
2022-10-05T11:27:25.915Z,26.95
2022-10-05T11:28:26.023Z,26.92
2022-10-05T11:29:25.908Z,26.99
2022-10-05T11:30:25.908Z,26.87
2022-10-05T11:31:25.999Z,26.92
2022-10-05T11:32:25.909Z,26.95
2022-10-05T11:33:25.909Z,26.91
2022-10-05T11:34:25.941Z,26.94
2022-10-05T11:35:25.912Z,26.95
2022-10-05T11:36:25.909Z,26.92
2022-10-05T11:37:25.908Z,26.94
2022-10-05T11:38:25.909Z,27.00
2022-10-05T11:39:25.909Z,26.88
2022-10-05T11:40:25.915Z,26.99
2022-10-05T11:41:25.908Z,26.95
2022-10-05T11:42:25.908Z,26.91
2022-10-05T11:43:25.908Z,26.95
2022-10-05T11:44:25.911Z,26.97
2022-10-05T11:45:25.910Z,26.89
2022-10-05T11:46:25.948Z,26.89
2022-10-05T11:47:25.908Z,26.89
2022-10-05T11:48:25.909Z,26.89
2022-10-05T11:49:25.910Z,26.92
2022-10-05T11:50:25.945Z,26.92
2022-10-05T11:51:28.757Z,26.99
2022-10-05T11:52:25.910Z,26.88
2022-10-05T11:53:25.911Z,26.92
2022-10-05T11:54:25.911Z,26.94
2022-10-05T11:55:25.911Z,26.89
2022-10-05T11:56:25.956Z,26.91
2022-10-05T11:57:25.914Z,26.85
2022-10-05T11:58:25.911Z,26.89
2022-10-05T11:59:25.910Z,26.89
2022-10-05T12:00:25.910Z,26.89
2022-10-05T12:01:25.912Z,26.89
2022-10-05T12:02:25.910Z,26.89
2022-10-05T12:03:26.007Z,26.92
2022-10-05T12:04:25.912Z,26.94
2022-10-05T12:05:25.913Z,26.91
2022-10-05T12:06:25.932Z,26.94
2022-10-05T12:07:25.911Z,26.88
2022-10-05T12:08:25.912Z,26.89
2022-10-05T12:09:25.911Z,26.84
2022-10-05T12:10:25.911Z,26.92
2022-10-05T12:11:25.912Z,26.91
2022-10-05T12:12:25.913Z,26.88
2022-10-05T12:13:25.913Z,26.87
2022-10-05T12:14:25.913Z,26.88
2022-10-05T12:15:25.911Z,26.87
2022-10-05T12:16:25.952Z,26.89
2022-10-05T12:17:25.912Z,26.80
2022-10-05T12:18:25.911Z,26.81
2022-10-05T12:19:25.911Z,26.88
2022-10-05T12:20:25.912Z,26.91
2022-10-05T12:21:25.912Z,26.80
2022-10-05T12:22:25.935Z,26.81
2022-10-05T12:23:25.914Z,26.85
2022-10-05T12:24:26.985Z,26.85
2022-10-05T12:25:25.912Z,26.88
2022-10-05T12:26:25.912Z,26.91
2022-10-05T12:27:25.913Z,26.88
2022-10-05T12:28:25.939Z,26.88
2022-10-05T12:29:25.912Z,26.84
2022-10-05T12:30:25.912Z,26.84
2022-10-05T12:31:25.958Z,26.84
2022-10-05T12:32:25.914Z,26.87
2022-10-05T12:33:25.913Z,26.76
2022-10-05T12:34:25.912Z,26.82
2022-10-05T12:35:43.767Z,26.77
2022-10-05T12:36:31.934Z,26.84
2022-10-05T12:37:25.914Z,26.85
2022-10-05T12:38:26.145Z,26.89
2022-10-05T12:39:25.912Z,26.84
2022-10-05T12:40:25.913Z,26.89
2022-10-05T12:41:25.915Z,26.88
2022-10-05T12:42:25.915Z,26.88
2022-10-05T12:43:25.914Z,26.88
2022-10-05T12:44:25.915Z,26.77
2022-10-05T12:45:25.925Z,26.87
2022-10-05T12:46:25.913Z,26.89
2022-10-05T12:47:25.914Z,26.87
2022-10-05T12:48:25.914Z,26.88
2022-10-05T12:49:25.918Z,26.87
2022-10-05T12:50:25.914Z,26.84
2022-10-05T12:51:25.913Z,26.92
2022-10-05T12:52:25.914Z,26.94
2022-10-05T12:53:25.916Z,26.91